sensor_id;sensor_type;location;lat;lon;timestamp;P1;durP1;ratioP1;P2;durP2;ratioP2
16346;SDS011;8283;48.504;13.734;2024-02-23T00:02:08;4.10;;;2.85;;
16346;SDS011;8283;48.504;13.734;2024-02-23T00:04:27;3.92;;;2.28;;
16346;SDS011;8283;48.504;13.734;2024-02-23T00:06:46;3.38;;;2.38;;
16346;SDS011;8283;48.504;13.734;2024-02-23T00:09:05;4.60;;;2.70;;
16346;SDS011;8283;48.504;13.734;2024-02-23T00:11:25;4.90;;;2.25;;
16346;SDS011;8283;48.504;13.734;2024-02-23T00:13:46;3.40;;;2.50;;
16346;SDS011;8283;48.504;13.734;2024-02-23T00:16:06;4.20;;;2.88;;
16346;SDS011;8283;48.504;13.734;2024-02-23T00:18:25;3.97;;;2.25;;
16346;SDS011;8283;48.504;13.734;2024-02-23T00:20:46;4.97;;;2.67;;
16346;SDS011;8283;48.504;13.734;2024-02-23T00:23:05;3.75;;;2.55;;
16346;SDS011;8283;48.504;13.734;2024-02-23T00:25:24;3.55;;;2.47;;
16346;SDS011;8283;48.504;13.734;2024-02-23T00:27:44;2.38;;;2.15;;
16346;SDS011;8283;48.504;13.734;2024-02-23T00:30:05;3.90;;;2.35;;
16346;SDS011;8283;48.504;13.734;2024-02-23T00:32:25;3.53;;;2.43;;
16346;SDS011;8283;48.504;13.734;2024-02-23T00:34:45;3.35;;;2.50;;
16346;SDS011;8283;48.504;13.734;2024-02-23T00:37:04;3.50;;;2.15;;
16346;SDS011;8283;48.504;13.734;2024-02-23T00:39:24;4.88;;;2.63;;
16346;SDS011;8283;48.504;13.734;2024-02-23T00:41:45;3.15;;;2.42;;
16346;SDS011;8283;48.504;13.734;2024-02-23T00:44:04;3.13;;;2.28;;
16346;SDS011;8283;48.504;13.734;2024-02-23T00:46:23;4.57;;;2.60;;
16346;SDS011;8283;48.504;13.734;2024-02-23T00:48:43;3.80;;;2.58;;
16346;SDS011;8283;48.504;13.734;2024-02-23T00:51:02;4.10;;;2.40;;
16346;SDS011;8283;48.504;13.734;2024-02-23T00:53:22;3.92;;;2.88;;
16346;SDS011;8283;48.504;13.734;2024-02-23T00:55:41;3.67;;;2.45;;
16346;SDS011;8283;48.504;13.734;2024-02-23T00:58:00;3.47;;;2.40;;
16346;SDS011;8283;48.504;13.734;2024-02-23T01:00:19;3.22;;;2.22;;
16346;SDS011;8283;48.504;13.734;2024-02-23T01:02:39;4.53;;;2.67;;
16346;SDS011;8283;48.504;13.734;2024-02-23T01:04:59;6.53;;;2.72;;
16346;SDS011;8283;48.504;13.734;2024-02-23T01:07:18;6.43;;;2.40;;
16346;SDS011;8283;48.504;13.734;2024-02-23T01:09:37;3.78;;;2.20;;
16346;SDS011;8283;48.504;13.734;2024-02-23T01:11:56;4.35;;;2.75;;
16346;SDS011;8283;48.504;13.734;2024-02-23T01:14:16;3.65;;;2.38;;
16346;SDS011;8283;48.504;13.734;2024-02-23T01:16:35;3.33;;;2.45;;
16346;SDS011;8283;48.504;13.734;2024-02-23T01:18:54;3.50;;;2.60;;
16346;SDS011;8283;48.504;13.734;2024-02-23T01:21:14;3.15;;;2.72;;
16346;SDS011;8283;48.504;13.734;2024-02-23T01:23:33;3.53;;;2.20;;
16346;SDS011;8283;48.504;13.734;2024-02-23T01:25:53;3.00;;;2.05;;
16346;SDS011;8283;48.504;13.734;2024-02-23T01:28:12;4.85;;;2.40;;
16346;SDS011;8283;48.504;13.734;2024-02-23T01:30:32;2.72;;;2.10;;
16346;SDS011;8283;48.504;13.734;2024-02-23T01:32:51;3.75;;;2.60;;
16346;SDS011;8283;48.504;13.734;2024-02-23T01:35:10;4.15;;;2.30;;
16346;SDS011;8283;48.504;13.734;2024-02-23T01:37:30;4.43;;;2.90;;
16346;SDS011;8283;48.504;13.734;2024-02-23T01:39:49;4.88;;;3.40;;
16346;SDS011;8283;48.504;13.734;2024-02-23T01:42:09;4.88;;;4.20;;
16346;SDS011;8283;48.504;13.734;2024-02-23T01:44:28;6.95;;;3.95;;
16346;SDS011;8283;48.504;13.734;2024-02-23T01:46:48;4.63;;;3.47;;
16346;SDS011;8283;48.504;13.734;2024-02-23T01:49:08;4.53;;;3.45;;
16346;SDS011;8283;48.504;13.734;2024-02-23T01:51:28;4.82;;;4.03;;
16346;SDS011;8283;48.504;13.734;2024-02-23T01:53:51;5.15;;;3.80;;
16346;SDS011;8283;48.504;13.734;2024-02-23T01:56:10;5.63;;;3.50;;
16346;SDS011;8283;48.504;13.734;2024-02-23T01:58:33;4.63;;;3.95;;
16346;SDS011;8283;48.504;13.734;2024-02-23T02:00:53;5.25;;;3.50;;
16346;SDS011;8283;48.504;13.734;2024-02-23T02:03:13;3.90;;;3.38;;
16346;SDS011;8283;48.504;13.734;2024-02-23T02:05:32;5.38;;;3.35;;
16346;SDS011;8283;48.504;13.734;2024-02-23T02:07:53;3.83;;;3.10;;
16346;SDS011;8283;48.504;13.734;2024-02-23T02:10:17;4.50;;;3.10;;
16346;SDS011;8283;48.504;13.734;2024-02-23T02:12:37;4.50;;;2.95;;
16346;SDS011;8283;48.504;13.734;2024-02-23T02:14:56;2.67;;;2.47;;
16346;SDS011;8283;48.504;13.734;2024-02-23T02:17:15;3.67;;;2.80;;
16346;SDS011;8283;48.504;13.734;2024-02-23T02:19:35;3.35;;;2.15;;
16346;SDS011;8283;48.504;13.734;2024-02-23T02:21:54;3.78;;;2.72;;
16346;SDS011;8283;48.504;13.734;2024-02-23T02:24:15;3.63;;;3.25;;
16346;SDS011;8283;48.504;13.734;2024-02-23T02:26:34;3.58;;;2.65;;
16346;SDS011;8283;48.504;13.734;2024-02-23T02:28:55;3.72;;;2.92;;
16346;SDS011;8283;48.504;13.734;2024-02-23T02:31:15;3.47;;;2.53;;
16346;SDS011;8283;48.504;13.734;2024-02-23T02:33:34;5.55;;;2.85;;
16346;SDS011;8283;48.504;13.734;2024-02-23T02:35:53;5.25;;;3.08;;
16346;SDS011;8283;48.504;13.734;2024-02-23T02:38:13;6.00;;;3.05;;
16346;SDS011;8283;48.504;13.734;2024-02-23T02:40:32;3.80;;;1.80;;
16346;SDS011;8283;48.504;13.734;2024-02-23T02:42:52;2.10;;;1.75;;
16346;SDS011;8283;48.504;13.734;2024-02-23T02:45:11;3.63;;;1.98;;
16346;SDS011;8283;48.504;13.734;2024-02-23T02:47:31;2.75;;;2.20;;
16346;SDS011;8283;48.504;13.734;2024-02-23T02:49:50;3.83;;;2.08;;
16346;SDS011;8283;48.504;13.734;2024-02-23T02:52:10;2.88;;;1.67;;
16346;SDS011;8283;48.504;13.734;2024-02-23T02:54:29;2.00;;;1.63;;
16346;SDS011;8283;48.504;13.734;2024-02-23T02:56:49;4.07;;;1.80;;
16346;SDS011;8283;48.504;13.734;2024-02-23T02:59:10;3.60;;;1.80;;
16346;SDS011;8283;48.504;13.734;2024-02-23T03:01:29;1.42;;;1.15;;
16346;SDS011;8283;48.504;13.734;2024-02-23T03:03:48;1.95;;;1.50;;
16346;SDS011;8283;48.504;13.734;2024-02-23T03:06:07;2.20;;;1.50;;
16346;SDS011;8283;48.504;13.734;2024-02-23T03:08:27;3.13;;;1.40;;
16346;SDS011;8283;48.504;13.734;2024-02-23T03:10:46;1.15;;;1.00;;
16346;SDS011;8283;48.504;13.734;2024-02-23T03:13:06;1.42;;;0.95;;
16346;SDS011;8283;48.504;13.734;2024-02-23T03:15:25;0.63;;;0.63;;
16346;SDS011;8283;48.504;13.734;2024-02-23T03:17:45;1.38;;;1.00;;
16346;SDS011;8283;48.504;13.734;2024-02-23T03:20:04;1.00;;;0.80;;
16346;SDS011;8283;48.504;13.734;2024-02-23T03:22:27;1.75;;;0.85;;
16346;SDS011;8283;48.504;13.734;2024-02-23T03:24:46;1.75;;;0.80;;
16346;SDS011;8283;48.504;13.734;2024-02-23T03:27:06;0.70;;;0.70;;
16346;SDS011;8283;48.504;13.734;2024-02-23T03:29:25;1.35;;;0.68;;
16346;SDS011;8283;48.504;13.734;2024-02-23T03:31:48;1.40;;;0.70;;
16346;SDS011;8283;48.504;13.734;2024-02-23T03:34:07;1.95;;;1.08;;
16346;SDS011;8283;48.504;13.734;2024-02-23T03:36:26;1.48;;;0.85;;
16346;SDS011;8283;48.504;13.734;2024-02-23T03:38:46;0.82;;;0.70;;
16346;SDS011;8283;48.504;13.734;2024-02-23T03:41:05;0.47;;;0.40;;
16346;SDS011;8283;48.504;13.734;2024-02-23T03:43:25;1.00;;;0.60;;
16346;SDS011;8283;48.504;13.734;2024-02-23T03:45:45;0.85;;;0.60;;
16346;SDS011;8283;48.504;13.734;2024-02-23T03:48:04;0.70;;;0.50;;
16346;SDS011;8283;48.504;13.734;2024-02-23T03:50:24;3.15;;;0.70;;
16346;SDS011;8283;48.504;13.734;2024-02-23T03:52:44;0.50;;;0.40;;
16346;SDS011;8283;48.504;13.734;2024-02-23T03:55:03;0.52;;;0.45;;
16346;SDS011;8283;48.504;13.734;2024-02-23T03:57:23;0.93;;;0.45;;
16346;SDS011;8283;48.504;13.734;2024-02-23T03:59:55;0.65;;;0.40;;
16346;SDS011;8283;48.504;13.734;2024-02-23T04:02:15;0.77;;;0.50;;
16346;SDS011;8283;48.504;13.734;2024-02-23T04:04:35;0.50;;;0.50;;
16346;SDS011;8283;48.504;13.734;2024-02-23T04:06:54;0.60;;;0.50;;
16346;SDS011;8283;48.504;13.734;2024-02-23T04:09:13;0.52;;;0.47;;
16346;SDS011;8283;48.504;13.734;2024-02-23T04:11:32;1.35;;;0.40;;
16346;SDS011;8283;48.504;13.734;2024-02-23T04:13:51;0.50;;;0.40;;
16346;SDS011;8283;48.504;13.734;2024-02-23T04:16:11;0.60;;;0.57;;
16346;SDS011;8283;48.504;13.734;2024-02-23T04:18:30;0.47;;;0.30;;
16346;SDS011;8283;48.504;13.734;2024-02-23T04:20:51;1.27;;;0.30;;
16346;SDS011;8283;48.504;13.734;2024-02-23T04:23:10;0.57;;;0.43;;
16346;SDS011;8283;48.504;13.734;2024-02-23T04:25:29;0.40;;;0.35;;
16346;SDS011;8283;48.504;13.734;2024-02-23T04:27:49;0.30;;;0.20;;
16346;SDS011;8283;48.504;13.734;2024-02-23T04:30:09;0.10;;;0.10;;
16346;SDS011;8283;48.504;13.734;2024-02-23T04:32:30;0.10;;;0.10;;
16346;SDS011;8283;48.504;13.734;2024-02-23T04:34:49;0.10;;;0.10;;
16346;SDS011;8283;48.504;13.734;2024-02-23T04:37:09;0.10;;;0.10;;
16346;SDS011;8283;48.504;13.734;2024-02-23T04:39:28;0.10;;;0.10;;
16346;SDS011;8283;48.504;13.734;2024-02-23T04:41:47;0.10;;;0.10;;
16346;SDS011;8283;48.504;13.734;2024-02-23T04:44:06;0.10;;;0.10;;
16346;SDS011;8283;48.504;13.734;2024-02-23T04:46:26;0.10;;;0.10;;
16346;SDS011;8283;48.504;13.734;2024-02-23T04:48:45;0.13;;;0.13;;
16346;SDS011;8283;48.504;13.734;2024-02-23T04:51:04;0.10;;;0.10;;
16346;SDS011;8283;48.504;13.734;2024-02-23T04:53:25;0.20;;;0.20;;
16346;SDS011;8283;48.504;13.734;2024-02-23T04:55:45;0.50;;;0.50;;
16346;SDS011;8283;48.504;13.734;2024-02-23T04:58:05;3.13;;;1.40;;
16346;SDS011;8283;48.504;13.734;2024-02-23T05:00:25;1.13;;;0.73;;
16346;SDS011;8283;48.504;13.734;2024-02-23T05:02:51;0.35;;;0.30;;
16346;SDS011;8283;48.504;13.734;2024-02-23T05:05:10;1.38;;;0.32;;
16346;SDS011;8283;48.504;13.734;2024-02-23T05:07:33;0.40;;;0.32;;
16346;SDS011;8283;48.504;13.734;2024-02-23T05:09:53;0.10;;;0.10;;
16346;SDS011;8283;48.504;13.734;2024-02-23T05:12:12;0.10;;;0.10;;
16346;SDS011;8283;48.504;13.734;2024-02-23T05:14:31;0.13;;;0.13;;
16346;SDS011;8283;48.504;13.734;2024-02-23T05:16:50;0.10;;;0.10;;
16346;SDS011;8283;48.504;13.734;2024-02-23T05:19:10;1.10;;;0.45;;
16346;SDS011;8283;48.504;13.734;2024-02-23T05:21:29;0.77;;;0.20;;
16346;SDS011;8283;48.504;13.734;2024-02-23T05:23:49;0.10;;;0.10;;
16346;SDS011;8283;48.504;13.734;2024-02-23T05:26:09;0.20;;;0.20;;
16346;SDS011;8283;48.504;13.734;2024-02-23T05:28:29;0.50;;;0.10;;
16346;SDS011;8283;48.504;13.734;2024-02-23T05:30:49;0.20;;;0.20;;
16346;SDS011;8283;48.504;13.734;2024-02-23T05:33:08;0.20;;;0.20;;
16346;SDS011;8283;48.504;13.734;2024-02-23T05:35:27;0.15;;;0.15;;
16346;SDS011;8283;48.504;13.734;2024-02-23T05:37:47;0.30;;;0.20;;
16346;SDS011;8283;48.504;13.734;2024-02-23T05:40:06;3.55;;;0.30;;
16346;SDS011;8283;48.504;13.734;2024-02-23T05:42:28;0.35;;;0.20;;
16346;SDS011;8283;48.504;13.734;2024-02-23T05:44:47;0.20;;;0.20;;
16346;SDS011;8283;48.504;13.734;2024-02-23T05:47:07;0.75;;;0.20;;
16346;SDS011;8283;48.504;13.734;2024-02-23T05:49:26;0.20;;;0.20;;
16346;SDS011;8283;48.504;13.734;2024-02-23T05:51:46;0.70;;;0.60;;
16346;SDS011;8283;48.504;13.734;2024-02-23T05:54:06;2.42;;;1.50;;
16346;SDS011;8283;48.504;13.734;2024-02-23T05:56:25;1.30;;;0.68;;
16346;SDS011;8283;48.504;13.734;2024-02-23T05:58:44;1.90;;;0.90;;
16346;SDS011;8283;48.504;13.734;2024-02-23T06:01:03;3.45;;;2.33;;
16346;SDS011;8283;48.504;13.734;2024-02-23T06:03:26;2.38;;;1.33;;
16346;SDS011;8283;48.504;13.734;2024-02-23T06:05:45;0.75;;;0.40;;
16346;SDS011;8283;48.504;13.734;2024-02-23T06:08:05;0.85;;;0.70;;
16346;SDS011;8283;48.504;13.734;2024-02-23T06:10:24;1.90;;;1.08;;
16346;SDS011;8283;48.504;13.734;2024-02-23T06:12:44;8.85;;;4.80;;
16346;SDS011;8283;48.504;13.734;2024-02-23T06:15:04;7.85;;;4.65;;
16346;SDS011;8283;48.504;13.734;2024-02-23T06:17:24;6.35;;;3.30;;
16346;SDS011;8283;48.504;13.734;2024-02-23T06:19:43;2.13;;;1.10;;
16346;SDS011;8283;48.504;13.734;2024-02-23T06:22:02;1.98;;;1.20;;
16346;SDS011;8283;48.504;13.734;2024-02-23T06:24:22;0.73;;;0.50;;
16346;SDS011;8283;48.504;13.734;2024-02-23T06:26:41;0.50;;;0.40;;
16346;SDS011;8283;48.504;13.734;2024-02-23T06:29:01;0.65;;;0.43;;
16346;SDS011;8283;48.504;13.734;2024-02-23T06:31:20;0.50;;;0.30;;
16346;SDS011;8283;48.504;13.734;2024-02-23T06:33:39;1.98;;;0.82;;
16346;SDS011;8283;48.504;13.734;2024-02-23T06:35:59;0.60;;;0.40;;
16346;SDS011;8283;48.504;13.734;2024-02-23T06:38:19;0.40;;;0.28;;
16346;SDS011;8283;48.504;13.734;2024-02-23T06:40:38;1.63;;;0.20;;
16346;SDS011;8283;48.504;13.734;2024-02-23T06:42:58;1.45;;;0.20;;
16346;SDS011;8283;48.504;13.734;2024-02-23T06:45:18;0.50;;;0.30;;
16346;SDS011;8283;48.504;13.734;2024-02-23T06:47:38;0.38;;;0.28;;
16346;SDS011;8283;48.504;13.734;2024-02-23T06:49:59;0.25;;;0.20;;
16346;SDS011;8283;48.504;13.734;2024-02-23T06:52:19;0.47;;;0.40;;
16346;SDS011;8283;48.504;13.734;2024-02-23T06:54:38;0.70;;;0.20;;
16346;SDS011;8283;48.504;13.734;2024-02-23T06:56:58;1.05;;;0.20;;
16346;SDS011;8283;48.504;13.734;2024-02-23T06:59:17;0.40;;;0.25;;
16346;SDS011;8283;48.504;13.734;2024-02-23T07:01:36;11.52;;;6.47;;
16346;SDS011;8283;48.504;13.734;2024-02-23T07:04:06;1.67;;;0.88;;
16346;SDS011;8283;48.504;13.734;2024-02-23T07:06:26;1.80;;;0.60;;
16346;SDS011;8283;48.504;13.734;2024-02-23T07:08:47;0.30;;;0.30;;
16346;SDS011;8283;48.504;13.734;2024-02-23T07:11:06;0.47;;;0.47;;
16346;SDS011;8283;48.504;13.734;2024-02-23T07:13:26;1.25;;;0.70;;
16346;SDS011;8283;48.504;13.734;2024-02-23T07:15:45;0.90;;;0.30;;
16346;SDS011;8283;48.504;13.734;2024-02-23T07:18:05;0.32;;;0.20;;
16346;SDS011;8283;48.504;13.734;2024-02-23T07:20:24;1.27;;;0.20;;
16346;SDS011;8283;48.504;13.734;2024-02-23T07:22:44;0.90;;;0.63;;
16346;SDS011;8283;48.504;13.734;2024-02-23T07:25:07;0.52;;;0.50;;
16346;SDS011;8283;48.504;13.734;2024-02-23T07:27:26;0.68;;;0.30;;
16346;SDS011;8283;48.504;13.734;2024-02-23T07:29:46;0.20;;;0.20;;
16346;SDS011;8283;48.504;13.734;2024-02-23T07:32:05;0.95;;;0.40;;
16346;SDS011;8283;48.504;13.734;2024-02-23T07:34:25;0.47;;;0.20;;
16346;SDS011;8283;48.504;13.734;2024-02-23T07:36:44;0.30;;;0.20;;
16346;SDS011;8283;48.504;13.734;2024-02-23T07:39:03;1.65;;;0.38;;
16346;SDS011;8283;48.504;13.734;2024-02-23T07:41:23;0.30;;;0.28;;
16346;SDS011;8283;48.504;13.734;2024-02-23T07:43:42;0.85;;;0.52;;
16346;SDS011;8283;48.504;13.734;2024-02-23T07:46:03;1.27;;;0.30;;
16346;SDS011;8283;48.504;13.734;2024-02-23T07:48:23;0.20;;;0.20;;
16346;SDS011;8283;48.504;13.734;2024-02-23T07:50:43;0.90;;;0.45;;
16346;SDS011;8283;48.504;13.734;2024-02-23T07:53:02;0.52;;;0.40;;
16346;SDS011;8283;48.504;13.734;2024-02-23T07:55:23;0.67;;;0.60;;
16346;SDS011;8283;48.504;13.734;2024-02-23T07:57:42;0.35;;;0.30;;
16346;SDS011;8283;48.504;13.734;2024-02-23T08:00:01;0.40;;;0.20;;
16346;SDS011;8283;48.504;13.734;2024-02-23T08:02:30;0.98;;;0.40;;
16346;SDS011;8283;48.504;13.734;2024-02-23T08:04:50;0.20;;;0.17;;
16346;SDS011;8283;48.504;13.734;2024-02-23T08:07:11;0.25;;;0.13;;
16346;SDS011;8283;48.504;13.734;2024-02-23T08:09:30;0.10;;;0.10;;
16346;SDS011;8283;48.504;13.734;2024-02-23T08:11:49;0.30;;;0.10;;
16346;SDS011;8283;48.504;13.734;2024-02-23T08:14:10;0.20;;;0.20;;
16346;SDS011;8283;48.504;13.734;2024-02-23T08:16:30;1.10;;;0.47;;
16346;SDS011;8283;48.504;13.734;2024-02-23T08:18:49;0.10;;;0.10;;
16346;SDS011;8283;48.504;13.734;2024-02-23T08:21:09;1.65;;;0.52;;
16346;SDS011;8283;48.504;13.734;2024-02-23T08:23:29;1.00;;;0.35;;
16346;SDS011;8283;48.504;13.734;2024-02-23T08:25:48;0.30;;;0.28;;
16346;SDS011;8283;48.504;13.734;2024-02-23T08:28:09;0.77;;;0.40;;
16346;SDS011;8283;48.504;13.734;2024-02-23T08:30:28;1.02;;;0.30;;
16346;SDS011;8283;48.504;13.734;2024-02-23T08:32:47;0.32;;;0.20;;
16346;SDS011;8283;48.504;13.734;2024-02-23T08:35:07;0.10;;;0.10;;
16346;SDS011;8283;48.504;13.734;2024-02-23T08:37:26;0.50;;;0.20;;
16346;SDS011;8283;48.504;13.734;2024-02-23T08:39:46;0.82;;;0.30;;
16346;SDS011;8283;48.504;13.734;2024-02-23T08:42:05;0.50;;;0.30;;
16346;SDS011;8283;48.504;13.734;2024-02-23T08:44:24;1.88;;;0.30;;
16346;SDS011;8283;48.504;13.734;2024-02-23T08:46:44;0.43;;;0.40;;
16346;SDS011;8283;48.504;13.734;2024-02-23T08:49:03;0.40;;;0.20;;
16346;SDS011;8283;48.504;13.734;2024-02-23T08:51:22;0.38;;;0.22;;
16346;SDS011;8283;48.504;13.734;2024-02-23T08:53:42;0.50;;;0.40;;
16346;SDS011;8283;48.504;13.734;2024-02-23T08:56:02;0.37;;;0.20;;
16346;SDS011;8283;48.504;13.734;2024-02-23T08:58:22;0.45;;;0.20;;
16346;SDS011;8283;48.504;13.734;2024-02-23T09:00:41;1.17;;;0.30;;
16346;SDS011;8283;48.504;13.734;2024-02-23T09:03:00;0.28;;;0.20;;
16346;SDS011;8283;48.504;13.734;2024-02-23T09:05:19;0.25;;;0.25;;
16346;SDS011;8283;48.504;13.734;2024-02-23T09:07:39;0.15;;;0.15;;
16346;SDS011;8283;48.504;13.734;2024-02-23T09:09:58;0.38;;;0.20;;
16346;SDS011;8283;48.504;13.734;2024-02-23T09:12:18;0.40;;;0.30;;
16346;SDS011;8283;48.504;13.734;2024-02-23T09:14:37;0.38;;;0.32;;
16346;SDS011;8283;48.504;13.734;2024-02-23T09:16:57;1.10;;;0.60;;
16346;SDS011;8283;48.504;13.734;2024-02-23T09:19:16;0.20;;;0.20;;
16346;SDS011;8283;48.504;13.734;2024-02-23T09:21:37;0.20;;;0.20;;
16346;SDS011;8283;48.504;13.734;2024-02-23T09:23:56;0.40;;;0.30;;
16346;SDS011;8283;48.504;13.734;2024-02-23T09:26:16;0.10;;;0.10;;
16346;SDS011;8283;48.504;13.734;2024-02-23T09:28:37;0.40;;;0.40;;
16346;SDS011;8283;48.504;13.734;2024-02-23T09:30:56;0.38;;;0.30;;
16346;SDS011;8283;48.504;13.734;2024-02-23T09:33:17;0.57;;;0.40;;
16346;SDS011;8283;48.504;13.734;2024-02-23T09:35:36;0.30;;;0.30;;
16346;SDS011;8283;48.504;13.734;2024-02-23T09:37:55;0.35;;;0.20;;
16346;SDS011;8283;48.504;13.734;2024-02-23T09:40:15;0.45;;;0.38;;
16346;SDS011;8283;48.504;13.734;2024-02-23T09:42:35;0.43;;;0.30;;
16346;SDS011;8283;48.504;13.734;2024-02-23T09:44:59;1.75;;;0.22;;
16346;SDS011;8283;48.504;13.734;2024-02-23T09:47:19;0.35;;;0.20;;
16346;SDS011;8283;48.504;13.734;2024-02-23T09:49:40;0.38;;;0.30;;
16346;SDS011;8283;48.504;13.734;2024-02-23T09:51:59;1.73;;;0.63;;
16346;SDS011;8283;48.504;13.734;2024-02-23T09:54:19;0.45;;;0.28;;
16346;SDS011;8283;48.504;13.734;2024-02-23T09:56:39;0.30;;;0.30;;
16346;SDS011;8283;48.504;13.734;2024-02-23T09:58:59;0.28;;;0.20;;
16346;SDS011;8283;48.504;13.734;2024-02-23T10:01:25;1.25;;;0.30;;
16346;SDS011;8283;48.504;13.734;2024-02-23T10:03:47;0.30;;;0.30;;
16346;SDS011;8283;48.504;13.734;2024-02-23T10:06:06;1.08;;;0.20;;
16346;SDS011;8283;48.504;13.734;2024-02-23T10:08:26;0.75;;;0.30;;
16346;SDS011;8283;48.504;13.734;2024-02-23T10:10:46;0.30;;;0.20;;
16346;SDS011;8283;48.504;13.734;2024-02-23T10:13:06;0.40;;;0.30;;
16346;SDS011;8283;48.504;13.734;2024-02-23T10:15:36;0.88;;;0.40;;
16346;SDS011;8283;48.504;13.734;2024-02-23T10:17:56;0.63;;;0.33;;
16346;SDS011;8283;48.504;13.734;2024-02-23T10:20:15;0.38;;;0.38;;
16346;SDS011;8283;48.504;13.734;2024-02-23T10:22:36;1.05;;;0.40;;
16346;SDS011;8283;48.504;13.734;2024-02-23T10:24:55;1.35;;;0.40;;
16346;SDS011;8283;48.504;13.734;2024-02-23T10:27:16;0.30;;;0.30;;
16346;SDS011;8283;48.504;13.734;2024-02-23T10:29:36;0.65;;;0.50;;
16346;SDS011;8283;48.504;13.734;2024-02-23T10:31:56;1.23;;;0.50;;
16346;SDS011;8283;48.504;13.734;2024-02-23T10:34:17;1.08;;;0.50;;
16346;SDS011;8283;48.504;13.734;2024-02-23T10:36:40;1.00;;;0.80;;
16346;SDS011;8283;48.504;13.734;2024-02-23T10:39:01;2.17;;;1.50;;
16346;SDS011;8283;48.504;13.734;2024-02-23T10:41:23;1.15;;;0.40;;
16346;SDS011;8283;48.504;13.734;2024-02-23T10:43:47;0.70;;;0.60;;
16346;SDS011;8283;48.504;13.734;2024-02-23T10:46:07;0.55;;;0.43;;
16346;SDS011;8283;48.504;13.734;2024-02-23T10:48:31;0.75;;;0.40;;
16346;SDS011;8283;48.504;13.734;2024-02-23T10:50:51;2.10;;;1.60;;
16346;SDS011;8283;48.504;13.734;2024-02-23T10:53:11;0.98;;;0.68;;
16346;SDS011;8283;48.504;13.734;2024-02-23T10:57:51;1.23;;;0.85;;
16346;SDS011;8283;48.504;13.734;2024-02-23T11:00:13;2.13;;;0.63;;
16346;SDS011;8283;48.504;13.734;2024-02-23T11:02:34;1.67;;;0.88;;
16346;SDS011;8283;48.504;13.734;2024-02-23T11:05:02;0.90;;;0.50;;
16346;SDS011;8283;48.504;13.734;2024-02-23T11:09:48;0.75;;;0.47;;
16346;SDS011;8283;48.504;13.734;2024-02-23T11:12:11;1.35;;;0.50;;
16346;SDS011;8283;48.504;13.734;2024-02-23T11:14:40;0.98;;;0.57;;
16346;SDS011;8283;48.504;13.734;2024-02-23T11:17:03;1.55;;;0.50;;
16346;SDS011;8283;48.504;13.734;2024-02-23T11:19:31;0.65;;;0.50;;
16346;SDS011;8283;48.504;13.734;2024-02-23T11:21:52;0.40;;;0.38;;
16346;SDS011;8283;48.504;13.734;2024-02-23T11:24:15;0.68;;;0.50;;
16346;SDS011;8283;48.504;13.734;2024-02-23T11:26:36;0.40;;;0.40;;
16346;SDS011;8283;48.504;13.734;2024-02-23T11:28:56;0.68;;;0.50;;
16346;SDS011;8283;48.504;13.734;2024-02-23T11:31:18;0.45;;;0.45;;
16346;SDS011;8283;48.504;13.734;2024-02-23T11:33:39;0.55;;;0.50;;
16346;SDS011;8283;48.504;13.734;2024-02-23T11:36:04;0.63;;;0.60;;
16346;SDS011;8283;48.504;13.734;2024-02-23T11:38:27;1.02;;;0.80;;
16346;SDS011;8283;48.504;13.734;2024-02-23T11:40:48;0.93;;;0.70;;
16346;SDS011;8283;48.504;13.734;2024-02-23T11:43:07;0.60;;;0.50;;
16346;SDS011;8283;48.504;13.734;2024-02-23T11:45:30;0.50;;;0.50;;
16346;SDS011;8283;48.504;13.734;2024-02-23T11:47:49;0.60;;;0.60;;
16346;SDS011;8283;48.504;13.734;2024-02-23T11:50:09;0.60;;;0.50;;
16346;SDS011;8283;48.504;13.734;2024-02-23T11:52:29;0.63;;;0.57;;
16346;SDS011;8283;48.504;13.734;2024-02-23T11:54:49;0.67;;;0.67;;
16346;SDS011;8283;48.504;13.734;2024-02-23T11:57:08;0.40;;;0.40;;
16346;SDS011;8283;48.504;13.734;2024-02-23T11:59:27;0.43;;;0.43;;
16346;SDS011;8283;48.504;13.734;2024-02-23T12:01:47;0.45;;;0.45;;
16346;SDS011;8283;48.504;13.734;2024-02-23T12:04:06;0.70;;;0.70;;
16346;SDS011;8283;48.504;13.734;2024-02-23T12:06:26;0.60;;;0.60;;
16346;SDS011;8283;48.504;13.734;2024-02-23T12:08:48;1.00;;;0.68;;
16346;SDS011;8283;48.504;13.734;2024-02-23T12:11:08;1.27;;;0.90;;
16346;SDS011;8283;48.504;13.734;2024-02-23T12:13:28;0.80;;;0.60;;
16346;SDS011;8283;48.504;13.734;2024-02-23T12:15:48;0.40;;;0.40;;
16346;SDS011;8283;48.504;13.734;2024-02-23T12:18:12;1.98;;;0.90;;
16346;SDS011;8283;48.504;13.734;2024-02-23T12:20:33;0.98;;;0.73;;
16346;SDS011;8283;48.504;13.734;2024-02-23T12:22:57;0.68;;;0.65;;
16346;SDS011;8283;48.504;13.734;2024-02-23T12:25:17;0.70;;;0.70;;
16346;SDS011;8283;48.504;13.734;2024-02-23T12:27:36;0.70;;;0.60;;
16346;SDS011;8283;48.504;13.734;2024-02-23T12:29:56;0.50;;;0.50;;
16346;SDS011;8283;48.504;13.734;2024-02-23T12:32:15;0.50;;;0.50;;
16346;SDS011;8283;48.504;13.734;2024-02-23T12:34:39;0.75;;;0.73;;
16346;SDS011;8283;48.504;13.734;2024-02-23T12:36:58;0.70;;;0.60;;
16346;SDS011;8283;48.504;13.734;2024-02-23T12:39:17;0.63;;;0.60;;
16346;SDS011;8283;48.504;13.734;2024-02-23T12:41:38;0.95;;;0.50;;
16346;SDS011;8283;48.504;13.734;2024-02-23T12:43:57;1.00;;;0.60;;
16346;SDS011;8283;48.504;13.734;2024-02-23T12:46:17;0.98;;;0.80;;
16346;SDS011;8283;48.504;13.734;2024-02-23T12:48:36;1.05;;;0.82;;
16346;SDS011;8283;48.504;13.734;2024-02-23T12:50:56;1.10;;;0.60;;
16346;SDS011;8283;48.504;13.734;2024-02-23T12:53:31;0.40;;;0.40;;
16346;SDS011;8283;48.504;13.734;2024-02-23T12:56:04;0.65;;;0.60;;
16346;SDS011;8283;48.504;13.734;2024-02-23T12:58:24;1.52;;;0.77;;
16346;SDS011;8283;48.504;13.734;2024-02-23T13:00:43;1.20;;;0.52;;
16346;SDS011;8283;48.504;13.734;2024-02-23T13:03:03;0.57;;;0.55;;
16346;SDS011;8283;48.504;13.734;2024-02-23T13:05:23;1.05;;;0.70;;
16346;SDS011;8283;48.504;13.734;2024-02-23T13:07:43;0.88;;;0.50;;
16346;SDS011;8283;48.504;13.734;2024-02-23T13:10:02;1.25;;;0.50;;
16346;SDS011;8283;48.504;13.734;2024-02-23T13:12:24;0.35;;;0.32;;
16346;SDS011;8283;48.504;13.734;2024-02-23T13:14:43;0.45;;;0.40;;
16346;SDS011;8283;48.504;13.734;2024-02-23T13:17:03;0.40;;;0.40;;
16346;SDS011;8283;48.504;13.734;2024-02-23T13:19:22;0.60;;;0.40;;
16346;SDS011;8283;48.504;13.734;2024-02-23T13:21:42;0.40;;;0.40;;
16346;SDS011;8283;48.504;13.734;2024-02-23T13:24:01;0.57;;;0.45;;
16346;SDS011;8283;48.504;13.734;2024-02-23T13:26:21;0.90;;;0.50;;
16346;SDS011;8283;48.504;13.734;2024-02-23T13:28:43;0.63;;;0.32;;
16346;SDS011;8283;48.504;13.734;2024-02-23T13:31:03;0.35;;;0.30;;
16346;SDS011;8283;48.504;13.734;2024-02-23T13:33:22;0.35;;;0.35;;
16346;SDS011;8283;48.504;13.734;2024-02-23T13:35:42;0.10;;;0.10;;
16346;SDS011;8283;48.504;13.734;2024-02-23T13:38:02;0.17;;;0.17;;
16346;SDS011;8283;48.504;13.734;2024-02-23T13:40:24;0.30;;;0.28;;
16346;SDS011;8283;48.504;13.734;2024-02-23T13:42:44;1.13;;;0.20;;
16346;SDS011;8283;48.504;13.734;2024-02-23T13:45:11;0.40;;;0.22;;
16346;SDS011;8283;48.504;13.734;2024-02-23T13:47:33;0.20;;;0.20;;
16346;SDS011;8283;48.504;13.734;2024-02-23T13:49:53;0.57;;;0.30;;
16346;SDS011;8283;48.504;13.734;2024-02-23T13:52:12;0.57;;;0.30;;
16346;SDS011;8283;48.504;13.734;2024-02-23T13:54:32;0.20;;;0.20;;
16346;SDS011;8283;48.504;13.734;2024-02-23T13:56:51;0.55;;;0.30;;
16346;SDS011;8283;48.504;13.734;2024-02-23T13:59:10;1.02;;;0.75;;
16346;SDS011;8283;48.504;13.734;2024-02-23T14:01:29;0.70;;;0.52;;
16346;SDS011;8283;48.504;13.734;2024-02-23T14:03:49;1.40;;;0.70;;
16346;SDS011;8283;48.504;13.734;2024-02-23T14:06:08;0.40;;;0.35;;
16346;SDS011;8283;48.504;13.734;2024-02-23T14:08:27;0.60;;;0.50;;
16346;SDS011;8283;48.504;13.734;2024-02-23T14:10:46;0.57;;;0.40;;